createdAt,value
2019-04-16T00:01:56.360Z,101539.64
2019-04-16T00:04:11.151Z,101539.16
2019-04-16T00:06:28.146Z,101543.55
2019-04-16T00:08:43.224Z,101548.77
2019-04-16T00:10:54.737Z,101543.52
2019-04-16T00:13:18.320Z,101541.84
2019-04-16T00:15:25.961Z,101548.73
2019-04-16T00:17:33.692Z,101545.72
2019-04-16T00:19:41.092Z,101547.94
2019-04-16T00:21:58.535Z,101552.24
2019-04-16T00:24:18.274Z,101557.48
2019-04-16T00:26:26.588Z,101549.25
2019-04-16T00:28:32.135Z,101553.09
2019-04-16T00:30:39.561Z,101555.35
2019-04-16T00:32:46.925Z,101550.11
2019-04-16T00:34:54.282Z,101557.52
2019-04-16T00:37:01.771Z,101560.13
2019-04-16T00:39:09.729Z,101565.28
2019-04-16T00:41:17.117Z,101564.42
2019-04-16T00:43:24.495Z,101569.67
2019-04-16T00:45:31.850Z,101568.81
2019-04-16T00:47:39.220Z,101573.14
2019-04-16T00:49:46.638Z,101571.87
2019-04-16T00:51:54.165Z,101571.89
2019-04-16T00:54:01.931Z,101574.06
2019-04-16T00:56:09.516Z,101574.89
2019-04-16T00:58:19.694Z,101578.83
2019-04-16T01:00:27.673Z,101574.14
2019-04-16T01:02:36.117Z,101577.20
2019-04-16T01:04:43.543Z,101576.30
2019-04-16T01:06:50.959Z,101572.41
2019-04-16T01:08:58.729Z,101575.02
2019-04-16T01:11:06.102Z,101572.03
2019-04-16T01:13:13.499Z,101575.87
2019-04-16T01:15:21.336Z,101572.02
2019-04-16T01:17:28.775Z,101577.23
2019-04-16T01:19:38.331Z,101575.87
2019-04-16T01:21:45.490Z,101580.23
2019-04-16T01:23:52.944Z,101581.09
2019-04-16T01:26:00.327Z,101585.05
2019-04-16T01:28:11.250Z,101582.05
2019-04-16T01:30:24.886Z,101589.44
2019-04-16T01:32:49.501Z,101585.14
2019-04-16T01:35:27.946Z,101589.02
2019-04-16T01:38:00.255Z,101593.41
2019-04-16T01:40:08.774Z,101582.09
2019-04-16T01:42:16.143Z,101582.13
2019-04-16T01:44:23.543Z,101585.59
2019-04-16T01:46:32.796Z,101583.86
2019-04-16T01:48:40.065Z,101584.30
2019-04-16T01:50:47.438Z,101584.28
2019-04-16T01:52:54.828Z,101592.52
2019-04-16T01:55:02.178Z,101589.94
2019-04-16T01:57:09.546Z,101591.69
2019-04-16T01:59:16.954Z,101586.48
2019-04-16T02:01:24.303Z,101587.34
2019-04-16T02:03:31.717Z,101583.05
2019-04-16T02:05:39.191Z,101597.82
2019-04-16T02:07:46.545Z,101590.85
2019-04-16T02:09:53.884Z,101600.43
2019-04-16T02:12:01.265Z,101594.34
2019-04-16T02:14:08.907Z,101597.81
2019-04-16T02:16:16.379Z,101604.75
2019-04-16T02:18:23.770Z,101610.83
2019-04-16T02:20:31.120Z,101610.81
2019-04-16T02:22:38.522Z,101611.23
2019-04-16T02:24:47.801Z,101611.69
2019-04-16T02:26:55.977Z,101607.33
2019-04-16T02:29:03.384Z,101605.63
2019-04-16T02:31:15.336Z,101600.86
2019-04-16T02:33:19.880Z,101601.70
2019-04-16T02:35:27.292Z,101594.33
2019-04-16T02:37:36.418Z,101600.38
2019-04-16T02:39:48.760Z,101602.09
2019-04-16T02:41:57.025Z,101595.15
2019-04-16T02:44:01.948Z,101598.16
2019-04-16T02:46:09.321Z,101595.10
2019-04-16T02:48:17.400Z,101596.83
2019-04-16T02:50:43.615Z,101602.81
2019-04-16T02:53:15.601Z,101598.48
2019-04-16T02:55:43.938Z,101605.83
2019-04-16T02:58:03.931Z,101608.92
2019-04-16T03:00:31.105Z,101605.42
2019-04-16T03:02:56.405Z,101613.11
2019-04-16T03:05:26.516Z,101604.91
2019-04-16T03:07:35.223Z,101613.09
2019-04-16T03:09:42.593Z,101614.83
2019-04-16T03:11:49.979Z,101609.59
2019-04-16T03:13:59.307Z,101612.58
2019-04-16T03:16:37.685Z,101613.42
2019-04-16T03:19:08.330Z,101612.20
2019-04-16T03:21:15.726Z,101620.45
2019-04-16T03:23:23.195Z,101622.12
2019-04-16T03:25:30.604Z,101626.00
2019-04-16T03:27:38.060Z,101628.09
2019-04-16T03:29:45.397Z,101629.05
2019-04-16T03:31:57.421Z,101628.50
2019-04-16T03:34:01.843Z,101633.68
2019-04-16T03:36:09.186Z,101630.64
2019-04-16T03:38:16.598Z,101633.22
2019-04-16T03:40:25.783Z,101633.62
2019-04-16T03:42:33.186Z,101622.35
2019-04-16T03:44:40.563Z,101628.84
2019-04-16T03:46:47.915Z,101638.84
2019-04-16T03:48:56.372Z,101631.90
2019-04-16T03:51:04.753Z,101634.43
2019-04-16T03:53:16.338Z,101633.56
2019-04-16T03:55:25.231Z,101643.03
2019-04-16T03:57:33.271Z,101641.80
2019-04-16T03:59:40.680Z,101639.61
2019-04-16T04:01:48.351Z,101649.97
2019-04-16T04:03:57.539Z,101646.08
2019-04-16T04:06:06.926Z,101655.10
2019-04-16T04:08:17.398Z,101655.25
2019-04-16T04:10:30.292Z,101647.88
2019-04-16T04:12:32.495Z,101645.66
2019-04-16T04:14:39.931Z,101656.08
2019-04-16T04:16:47.408Z,101648.02
2019-04-16T04:18:54.796Z,101654.50
2019-04-16T04:21:02.202Z,101652.35
2019-04-16T04:23:09.746Z,101653.68
2019-04-16T04:25:17.481Z,101651.58
2019-04-16T04:27:24.813Z,101656.48
2019-04-16T04:29:32.229Z,101661.35
2019-04-16T04:31:39.610Z,101646.25
2019-04-16T04:33:46.997Z,101649.69
2019-04-16T04:35:54.357Z,101651.52
2019-04-16T04:38:03.969Z,101647.63
2019-04-16T04:40:12.790Z,101649.77
2019-04-16T04:42:20.051Z,101647.20
2019-04-16T04:44:27.578Z,101640.28
2019-04-16T04:46:34.965Z,101654.61
2019-04-16T04:48:42.389Z,101650.26
2019-04-16T04:50:49.756Z,101655.88
2019-04-16T04:52:57.187Z,101643.33
2019-04-16T04:55:04.811Z,101647.23
2019-04-16T04:57:12.205Z,101646.83
2019-04-16T04:59:19.591Z,101648.98
2019-04-16T05:01:26.995Z,101648.56
2019-04-16T05:03:51.713Z,101648.14
2019-04-16T05:06:00.564Z,101654.22
2019-04-16T05:08:07.962Z,101656.41
2019-04-16T05:10:15.618Z,101650.75
2019-04-16T05:12:23.085Z,101651.63
2019-04-16T05:14:30.742Z,101648.16
2019-04-16T05:16:38.201Z,101655.98
2019-04-16T05:18:45.671Z,101664.64
2019-04-16T05:20:53.032Z,101656.81
2019-04-16T05:23:00.538Z,101655.06
2019-04-16T05:25:08.792Z,101652.88
2019-04-16T05:27:16.434Z,101655.89
2019-04-16T05:29:23.968Z,101655.02
2019-04-16T05:31:31.486Z,101657.20
2019-04-16T05:33:38.866Z,101648.02
2019-04-16T05:35:46.247Z,101653.64
2019-04-16T05:37:54.150Z,101651.88
2019-04-16T05:40:01.642Z,101658.38
2019-04-16T05:42:09.329Z,101658.80
2019-04-16T05:44:16.732Z,101663.97
2019-04-16T05:46:24.202Z,101667.86
2019-04-16T05:48:31.569Z,101673.48
2019-04-16T05:50:39.001Z,101680.78
2019-04-16T05:52:46.415Z,101673.36
2019-04-16T05:55:30.968Z,101675.91
2019-04-16T05:57:40.375Z,101681.92
2019-04-16T05:59:47.862Z,101674.47
2019-04-16T06:02:01.409Z,101681.86
2019-04-16T06:04:08.889Z,101683.12
2019-04-16T06:06:16.542Z,101679.12
2019-04-16T06:08:24.004Z,101683.38
2019-04-16T06:10:31.685Z,101683.38
2019-04-16T06:12:52.268Z,101679.45
2019-04-16T06:15:21.291Z,101682.38
2019-04-16T06:17:44.211Z,101687.11
2019-04-16T06:20:20.722Z,101691.48
2019-04-16T06:22:31.515Z,101682.33
2019-04-16T06:25:08.257Z,101683.99
2019-04-16T06:27:27.333Z,101680.83
2019-04-16T06:29:47.021Z,101685.56
2019-04-16T06:32:16.004Z,101682.54
2019-04-16T06:34:51.261Z,101683.17
2019-04-16T06:37:23.366Z,101684.08
2019-04-16T06:39:36.453Z,101679.59
2019-04-16T06:42:05.401Z,101677.58
2019-04-16T06:44:16.819Z,101679.85
2019-04-16T06:46:34.391Z,101677.70
2019-04-16T06:49:03.381Z,101685.03
2019-04-16T06:51:44.797Z,101682.36
2019-04-16T06:54:11.222Z,101684.44
2019-04-16T06:56:37.387Z,101676.91
2019-04-16T06:59:03.162Z,101679.77
2019-04-16T07:01:28.086Z,101677.87
2019-04-16T07:03:58.484Z,101673.03
2019-04-16T07:06:20.945Z,101673.39
2019-04-16T07:08:38.181Z,101671.84
2019-04-16T07:10:56.365Z,101672.26
2019-04-16T07:13:03.872Z,101672.20
2019-04-16T07:15:11.786Z,101675.33
2019-04-16T07:17:19.216Z,101679.42
2019-04-16T07:19:26.678Z,101673.53
2019-04-16T07:21:34.228Z,101680.84
2019-04-16T07:23:45.399Z,101671.02
2019-04-16T07:25:50.831Z,101673.87
2019-04-16T07:28:16.940Z,101667.59
2019-04-16T07:30:45.883Z,101673.59
2019-04-16T07:33:12.422Z,101672.62
2019-04-16T07:35:38.603Z,101670.58
2019-04-16T07:38:04.999Z,101665.06
2019-04-16T07:40:29.807Z,101664.34
2019-04-16T07:42:57.974Z,101666.64
2019-04-16T07:45:13.732Z,101674.14
2019-04-16T07:47:40.498Z,101676.72
2019-04-16T07:50:01.772Z,101666.50
2019-04-16T07:52:25.663Z,101670.09
2019-04-16T07:55:04.153Z,101672.98
2019-04-16T07:57:11.701Z,101665.80
2019-04-16T07:59:20.912Z,101666.83
2019-04-16T08:01:28.523Z,101665.19
2019-04-16T08:03:36.124Z,101670.54
2019-04-16T08:05:43.532Z,101666.05
2019-04-16T08:07:52.777Z,101664.58
2019-04-16T08:10:02.130Z,101666.28
2019-04-16T08:12:21.983Z,101668.56
2019-04-16T08:14:18.740Z,101667.13
2019-04-16T08:16:26.165Z,101667.53
2019-04-16T08:18:33.849Z,101663.92
2019-04-16T08:20:41.275Z,101656.88
2019-04-16T08:22:49.776Z,101652.95
2019-04-16T08:25:03.224Z,101657.28
2019-04-16T08:27:10.321Z,101648.75
2019-04-16T08:29:18.428Z,101643.02
2019-04-16T08:31:28.579Z,101651.28
2019-04-16T08:33:36.055Z,101636.10
2019-04-16T08:35:43.518Z,101643.94
2019-04-16T08:37:50.965Z,101639.77
2019-04-16T08:39:58.706Z,101635.09
2019-04-16T08:42:06.350Z,101636.58
2019-04-16T08:44:13.940Z,101644.30
2019-04-16T08:46:21.696Z,101632.79
2019-04-16T08:48:29.474Z,101636.50
2019-04-16T08:50:36.939Z,101640.91
2019-04-16T08:52:44.897Z,101640.25
2019-04-16T08:54:54.890Z,101630.59
2019-04-16T08:57:02.767Z,101631.02
2019-04-16T08:59:11.266Z,101627.78
2019-04-16T09:01:24.033Z,101627.80
2019-04-16T09:03:31.550Z,101630.73
2019-04-16T09:05:41.450Z,101630.42
2019-04-16T09:07:50.912Z,101631.84
2019-04-16T09:09:58.787Z,101632.12
2019-04-16T09:12:09.378Z,101624.67
2019-04-16T09:14:21.049Z,101628.67
2019-04-16T09:16:26.409Z,101623.16
2019-04-16T09:18:43.466Z,101618.39
2019-04-16T09:20:51.386Z,101623.55
2019-04-16T09:22:59.539Z,101616.45
2019-04-16T09:25:38.492Z,101614.13
2019-04-16T09:27:49.523Z,101613.20
2019-04-16T09:30:18.020Z,101607.21
2019-04-16T09:32:39.677Z,101616.13
2019-04-16T09:35:19.914Z,101616.96
2019-04-16T09:37:35.636Z,101612.56
2019-04-16T09:40:15.454Z,101614.31
2019-04-16T09:42:10.638Z,101609.90
2019-04-16T09:44:18.130Z,101607.11
2019-04-16T09:46:49.572Z,101605.20
2019-04-16T09:48:36.233Z,101607.58
2019-04-16T09:50:47.686Z,101603.77
2019-04-16T09:52:55.395Z,101594.73
2019-04-16T09:55:02.769Z,101599.92
2019-04-16T09:57:10.337Z,101598.95
2019-04-16T09:59:39.805Z,101598.28
2019-04-16T10:01:49.963Z,101599.77
2019-04-16T10:03:57.427Z,101592.73
2019-04-16T10:06:05.665Z,101589.14
2019-04-16T10:08:13.925Z,101585.66
2019-04-16T10:10:24.277Z,101589.83
2019-04-16T10:12:30.546Z,101587.01
2019-04-16T10:14:37.982Z,101586.06
2019-04-16T10:16:45.633Z,101581.59
2019-04-16T10:18:53.092Z,101583.45
2019-04-16T10:21:00.504Z,101582.13
2019-04-16T10:23:12.865Z,101574.47
2019-04-16T10:25:20.246Z,101577.42
2019-04-16T10:27:48.949Z,101574.11
2019-04-16T10:29:56.364Z,101572.83
2019-04-16T10:32:03.973Z,101559.67
2019-04-16T10:34:12.083Z,101571.52
2019-04-16T10:36:19.914Z,101567.16
2019-04-16T10:38:35.824Z,101562.95
2019-04-16T10:40:50.871Z,101567.11
2019-04-16T10:43:17.281Z,101565.03
2019-04-16T10:45:52.604Z,101557.47
2019-04-16T10:48:26.439Z,101563.83
2019-04-16T10:50:42.897Z,101556.58
2019-04-16T10:53:09.016Z,101552.61
2019-04-16T10:55:50.724Z,101549.77
2019-04-16T10:58:15.621Z,101545.56
2019-04-16T11:01:01.176Z,101543.59
2019-04-16T11:03:14.462Z,101536.84
2019-04-16T11:05:44.095Z,101541.08
2019-04-16T11:07:51.799Z,101530.48
2019-04-16T11:09:59.788Z,101535.23
2019-04-16T11:12:07.955Z,101534.25
2019-04-16T11:14:15.813Z,101525.91
2019-04-16T11:16:23.603Z,101532.53
2019-04-16T11:18:31.436Z,101530.28
2019-04-16T11:20:39.258Z,101529.48
2019-04-16T11:22:47.114Z,101527.02
2019-04-16T11:24:55.026Z,101531.62
2019-04-16T11:27:02.992Z,101529.72
2019-04-16T11:29:11.272Z,101528.56
2019-04-16T11:31:21.430Z,101523.14
2019-04-16T11:33:29.624Z,101518.07
2019-04-16T11:35:37.545Z,101525.86
2019-04-16T11:37:45.462Z,101517.94
2019-04-16T11:39:53.506Z,101523.22
2019-04-16T11:42:01.518Z,101511.06
2019-04-16T11:44:15.671Z,101510.83
2019-04-16T11:46:19.103Z,101506.95
2019-04-16T11:48:27.068Z,101511.22
2019-04-16T11:50:36.176Z,101508.00
2019-04-16T11:52:44.398Z,101514.34
2019-04-16T11:54:52.313Z,101502.98
2019-04-16T11:57:00.254Z,101504.36
2019-04-16T11:59:08.232Z,101512.77
2019-04-16T12:01:34.844Z,101508.27
2019-04-16T12:04:04.279Z,101498.52
2019-04-16T12:06:28.881Z,101502.62
2019-04-16T12:08:53.054Z,101501.30
2019-04-16T12:11:14.344Z,101508.24
2019-04-16T12:13:40.591Z,101500.66
2019-04-16T12:16:21.270Z,101504.61
2019-04-16T12:18:37.530Z,101492.64
2019-04-16T12:21:09.798Z,101496.64
2019-04-16T12:23:38.988Z,101494.81
2019-04-16T12:26:08.845Z,101488.30
2019-04-16T12:28:33.664Z,101476.25
2019-04-16T12:31:06.449Z,101475.73
2019-04-16T12:33:45.031Z,101477.83
2019-04-16T12:36:12.764Z,101472.12
2019-04-16T12:38:24.813Z,101473.70
2019-04-16T12:40:42.325Z,101474.74
2019-04-16T12:43:17.697Z,101475.42
2019-04-16T12:45:56.052Z,101474.17
2019-04-16T12:48:13.255Z,101475.50
2019-04-16T12:50:42.738Z,101470.75
2019-04-16T12:53:18.522Z,101471.36
2019-04-16T12:55:43.973Z,101473.29
2019-04-16T12:58:06.817Z,101475.70
2019-04-16T13:00:32.305Z,101470.70
2019-04-16T13:03:07.696Z,101477.34
2019-04-16T13:05:21.752Z,101465.88
2019-04-16T13:07:54.325Z,101473.27
2019-04-16T13:10:18.428Z,101462.89
2019-04-16T13:12:32.632Z,101458.62
2019-04-16T13:15:07.206Z,101461.98
2019-04-16T13:17:36.748Z,101467.47
2019-04-16T13:20:18.330Z,101469.69
2019-04-16T13:22:29.620Z,101471.09
2019-04-16T13:24:49.761Z,101465.94
2019-04-16T13:27:04.954Z,101474.42
2019-04-16T13:29:21.022Z,101467.02
2019-04-16T13:31:28.458Z,101465.03
2019-04-16T13:33:35.953Z,101465.45
2019-04-16T13:35:43.521Z,101463.98
2019-04-16T13:37:51.069Z,101468.96
2019-04-16T13:40:02.663Z,101467.78
2019-04-16T13:42:10.963Z,101456.78
2019-04-16T13:44:19.740Z,101466.88
2019-04-16T13:46:29.485Z,101472.87
2019-04-16T13:48:46.165Z,101483.44
2019-04-16T13:51:03.103Z,101477.50
2019-04-16T13:53:28.965Z,101479.73
2019-04-16T13:55:59.245Z,101485.85
2019-04-16T13:58:18.660Z,101487.77
2019-04-16T14:00:38.215Z,101484.63
2019-04-16T14:02:54.117Z,101480.36
2019-04-16T14:05:04.262Z,101490.80
2019-04-16T14:07:10.916Z,101476.88
2019-04-16T14:09:18.452Z,101490.87
2019-04-16T14:11:25.868Z,101478.36
2019-04-16T14:13:33.366Z,101478.36
2019-04-16T14:15:44.498Z,101480.47
2019-04-16T14:17:52.814Z,101487.32
2019-04-16T14:19:59.161Z,101478.56
2019-04-16T14:22:06.996Z,101488.02
2019-04-16T14:24:14.734Z,101486.52
2019-04-16T14:26:22.099Z,101487.52
2019-04-16T14:28:34.245Z,101489.45
2019-04-16T14:30:43.509Z,101495.38
2019-04-16T14:32:51.279Z,101491.77
2019-04-16T14:35:00.828Z,101488.56
2019-04-16T14:37:08.328Z,101490.45
2019-04-16T14:39:23.394Z,101495.03
2019-04-16T14:41:30.987Z,101494.26
2019-04-16T14:43:41.910Z,101489.86
2019-04-16T14:45:58.056Z,101500.38
2019-04-16T14:48:01.332Z,101497.59
2019-04-16T14:50:13.059Z,101492.16
2019-04-16T14:52:19.274Z,101502.33
2019-04-16T14:54:38.263Z,101499.84
2019-04-16T14:56:48.212Z,101498.06
2019-04-16T14:59:09.989Z,101503.95
2019-04-16T15:01:45.680Z,101501.16
2019-04-16T15:04:17.486Z,101500.75
2019-04-16T15:06:52.915Z,101502.37
2019-04-16T15:09:07.927Z,101502.17
2019-04-16T15:11:52.577Z,101508.67
2019-04-16T15:14:23.342Z,101506.09
2019-04-16T15:16:52.684Z,101510.52
2019-04-16T15:19:21.973Z,101512.33
2019-04-16T15:21:53.951Z,101518.80
2019-04-16T15:24:18.123Z,101513.67
2019-04-16T15:26:36.838Z,101515.45
2019-04-16T15:28:55.199Z,101515.22
2019-04-16T15:31:10.361Z,101515.41
2019-04-16T15:33:42.895Z,101515.38
2019-04-16T15:36:04.035Z,101514.66
2019-04-16T15:38:30.535Z,101513.20
2019-04-16T15:40:40.584Z,101516.77
2019-04-16T15:43:19.168Z,101510.88
2019-04-16T15:45:43.514Z,101522.55
2019-04-16T15:48:08.442Z,101515.20
2019-04-16T15:50:24.060Z,101514.89
2019-04-16T15:52:46.296Z,101520.77
2019-04-16T15:55:24.263Z,101516.73
2019-04-16T15:57:42.698Z,101510.03
2019-04-16T16:00:14.890Z,101522.75
2019-04-16T16:02:36.359Z,101525.17
2019-04-16T16:05:03.273Z,101519.07
2019-04-16T16:07:13.819Z,101529.52
2019-04-16T16:09:25.179Z,101526.85
2019-04-16T16:11:38.453Z,101517.59
2019-04-16T16:13:46.036Z,101526.91
2019-04-16T16:15:53.601Z,101528.23
2019-04-16T16:18:01.349Z,101523.77
2019-04-16T16:20:11.394Z,101525.39
2019-04-16T16:22:19.686Z,101526.14
2019-04-16T16:24:27.299Z,101528.37
2019-04-16T16:26:34.974Z,101527.52
2019-04-16T16:28:42.631Z,101535.47
2019-04-16T16:30:50.332Z,101534.77
2019-04-16T16:32:58.218Z,101537.04
2019-04-16T16:35:16.805Z,101542.17
2019-04-16T16:37:21.500Z,101538.35
2019-04-16T16:39:29.194Z,101548.49
2019-04-16T16:41:36.626Z,101543.73
2019-04-16T16:43:44.072Z,101542.36
2019-04-16T16:46:05.664Z,101536.12
2019-04-16T16:48:13.213Z,101543.19
2019-04-16T16:50:21.734Z,101546.42
2019-04-16T16:53:00.500Z,101545.20
2019-04-16T16:55:11.223Z,101549.39
2019-04-16T16:57:22.623Z,101560.20
2019-04-16T16:59:50.767Z,101555.67
2019-04-16T17:02:20.142Z,101558.28
2019-04-16T17:04:33.970Z,101558.53
2019-04-16T17:06:41.527Z,101561.95
2019-04-16T17:08:49.215Z,101560.66
2019-04-16T17:10:56.873Z,101567.68
2019-04-16T17:13:04.700Z,101571.56
2019-04-16T17:15:12.699Z,101572.53
2019-04-16T17:17:20.764Z,101562.28
2019-04-16T17:19:29.217Z,101566.14
2019-04-16T17:21:36.980Z,101571.16
2019-04-16T17:23:44.752Z,101568.85
2019-04-16T17:25:52.700Z,101573.98
2019-04-16T17:28:00.768Z,101576.78
2019-04-16T17:30:09.193Z,101578.01
2019-04-16T17:32:16.859Z,101580.28
2019-04-16T17:34:24.405Z,101581.84
2019-04-16T17:36:32.176Z,101583.66
2019-04-16T17:38:39.697Z,101585.56
2019-04-16T17:41:07.955Z,101594.47
2019-04-16T17:43:22.294Z,101590.66
2019-04-16T17:45:53.685Z,101594.85
2019-04-16T17:48:13.343Z,101596.59
2019-04-16T17:50:51.574Z,101604.32
2019-04-16T17:53:15.748Z,101601.98
2019-04-16T17:55:39.820Z,101600.08
2019-04-16T17:57:57.457Z,101603.03
2019-04-16T18:00:23.704Z,101608.36
2019-04-16T18:02:53.063Z,101601.86
2019-04-16T18:05:23.270Z,101604.55
2019-04-16T18:07:47.605Z,101605.32
2019-04-16T18:10:17.170Z,101604.94
2019-04-16T18:12:38.746Z,101612.04
2019-04-16T18:15:17.067Z,101609.84
2019-04-16T18:17:47.683Z,101604.64
2019-04-16T18:20:17.516Z,101602.06
2019-04-16T18:22:30.990Z,101606.71
2019-04-16T18:24:56.269Z,101615.09
2019-04-16T18:27:31.361Z,101617.31
2019-04-16T18:30:05.237Z,101616.45
2019-04-16T18:32:30.788Z,101615.47
2019-04-16T18:34:56.943Z,101619.19
2019-04-16T18:37:21.851Z,101608.50
2019-04-16T18:40:06.332Z,101612.44
2019-04-16T18:42:34.445Z,101611.11
2019-04-16T18:44:59.599Z,101608.16
2019-04-16T18:47:26.233Z,101601.77
2019-04-16T18:49:33.894Z,101593.62
2019-04-16T18:51:41.376Z,101587.47
2019-04-16T18:53:48.896Z,101592.70
2019-04-16T18:55:56.638Z,101587.13
2019-04-16T18:58:04.186Z,101589.95
2019-04-16T19:00:31.905Z,101582.78
2019-04-16T19:02:42.190Z,101567.88
2019-04-16T19:04:50.922Z,101569.38
2019-04-16T19:06:58.121Z,101560.48
2019-04-16T19:09:07.884Z,101578.03
2019-04-16T19:11:15.823Z,101586.62
2019-04-16T19:13:23.499Z,101606.34
2019-04-16T19:15:31.152Z,101606.81
2019-04-16T19:17:39.589Z,101593.24
2019-04-16T19:19:47.040Z,101593.53
2019-04-16T19:21:54.852Z,101596.39
2019-04-16T19:24:02.833Z,101625.07
2019-04-16T19:26:10.495Z,101604.13
2019-04-16T19:28:20.400Z,101612.95
2019-04-16T19:30:27.906Z,101594.68
2019-04-16T19:32:35.462Z,101599.75
2019-04-16T19:34:42.943Z,101600.48
2019-04-16T19:36:51.063Z,101591.25
2019-04-16T19:38:58.968Z,101585.66
2019-04-16T19:41:07.152Z,101584.17
2019-04-16T19:43:15.438Z,101564.23
2019-04-16T19:45:23.039Z,101563.83
2019-04-16T19:47:31.084Z,101565.23
2019-04-16T19:49:38.612Z,101567.66
2019-04-16T19:51:46.223Z,101575.23
2019-04-16T19:53:53.782Z,101555.05
2019-04-16T19:56:01.919Z,101563.06
2019-04-16T19:58:09.764Z,101537.94
2019-04-16T20:00:22.046Z,101533.95
2019-04-16T20:02:27.009Z,101523.00
2019-04-16T20:04:35.006Z,101512.50
2019-04-16T20:06:42.648Z,101515.59
2019-04-16T20:08:50.298Z,101528.33
2019-04-16T20:10:58.447Z,101536.80
2019-04-16T20:13:06.271Z,101549.09
2019-04-16T20:15:14.428Z,101536.33
2019-04-16T20:17:22.095Z,101545.39
2019-04-16T20:19:30.000Z,101538.27
2019-04-16T20:21:38.177Z,101533.38
2019-04-16T20:23:45.801Z,101536.12
2019-04-16T20:25:56.341Z,101533.92
2019-04-16T20:28:03.042Z,101538.97
2019-04-16T20:30:12.564Z,101535.42
2019-04-16T20:32:20.204Z,101534.47
2019-04-16T20:34:27.824Z,101541.86
2019-04-16T20:36:35.464Z,101539.05
2019-04-16T20:38:42.970Z,101540.74
2019-04-16T20:40:51.503Z,101542.86
2019-04-16T20:42:59.007Z,101539.63
2019-04-16T20:45:07.233Z,101545.03
2019-04-16T20:47:14.779Z,101539.61
2019-04-16T20:49:22.250Z,101542.63
2019-04-16T20:51:29.795Z,101534.30
2019-04-16T20:53:38.038Z,101544.30
2019-04-16T20:55:47.474Z,101537.91
2019-04-16T20:57:58.574Z,101538.34
2019-04-16T21:00:10.569Z,101538.55
2019-04-16T21:02:15.117Z,101538.22
2019-04-16T21:04:23.683Z,101538.30
2019-04-16T21:06:31.570Z,101535.14
2019-04-16T21:08:39.572Z,101539.22
2019-04-16T21:10:47.462Z,101536.09
2019-04-16T21:12:55.565Z,101534.03
2019-04-16T21:15:03.694Z,101532.47
2019-04-16T21:17:11.147Z,101533.25
2019-04-16T21:19:23.133Z,101532.56
2019-04-16T21:21:28.270Z,101526.88
2019-04-16T21:23:35.959Z,101529.93
2019-04-16T21:25:45.924Z,101527.77
2019-04-16T21:28:26.544Z,101531.33
2019-04-16T21:30:34.174Z,101525.92
2019-04-16T21:32:52.075Z,101523.43
2019-04-16T21:35:01.071Z,101515.68
2019-04-16T21:37:27.556Z,101519.06
2019-04-16T21:39:40.271Z,101519.75
2019-04-16T21:41:47.663Z,101515.59
2019-04-16T21:43:55.158Z,101511.05
2019-04-16T21:46:02.596Z,101507.33
2019-04-16T21:48:12.319Z,101510.43
2019-04-16T21:50:19.341Z,101506.98
2019-04-16T21:52:27.731Z,101514.27
2019-04-16T21:54:35.403Z,101511.60
2019-04-16T21:56:42.893Z,101500.88
2019-04-16T21:58:50.429Z,101505.29
2019-04-16T22:01:18.414Z,101501.81
2019-04-16T22:03:27.434Z,101506.50
2019-04-16T22:05:34.919Z,101498.30
2019-04-16T22:07:42.743Z,101487.98
2019-04-16T22:09:50.405Z,101495.91
2019-04-16T22:11:58.188Z,101498.94
2019-04-16T22:14:06.265Z,101498.03
2019-04-16T22:16:14.263Z,101495.73
2019-04-16T22:18:22.371Z,101499.33
2019-04-16T22:20:31.826Z,101499.74
2019-04-16T22:22:39.182Z,101491.19
2019-04-16T22:24:46.741Z,101493.59
2019-04-16T22:26:54.313Z,101498.83
2019-04-16T22:29:01.875Z,101499.78
2019-04-16T22:31:09.612Z,101499.12
2019-04-16T22:33:17.417Z,101500.70
2019-04-16T22:35:24.848Z,101493.19
2019-04-16T22:37:32.187Z,101494.63
2019-04-16T22:39:56.940Z,101492.28
2019-04-16T22:42:38.370Z,101498.43
2019-04-16T22:44:52.368Z,101492.67
2019-04-16T22:47:18.445Z,101488.41
2019-04-16T22:49:25.759Z,101493.41
2019-04-16T22:51:33.073Z,101483.30
2019-04-16T22:53:40.319Z,101493.95
2019-04-16T22:55:47.803Z,101492.81
2019-04-16T22:57:54.987Z,101490.13
2019-04-16T23:00:02.559Z,101489.83
2019-04-16T23:02:22.227Z,101496.00
2019-04-16T23:04:29.707Z,101495.05
2019-04-16T23:06:38.733Z,101492.52
2019-04-16T23:08:45.835Z,101502.08
2019-04-16T23:10:53.311Z,101504.70
2019-04-16T23:13:01.565Z,101506.12
2019-04-16T23:15:11.642Z,101503.23
2019-04-16T23:17:20.476Z,101501.50
2019-04-16T23:19:28.371Z,101490.20
2019-04-16T23:21:35.741Z,101494.41
2019-04-16T23:23:43.041Z,101495.73
2019-04-16T23:25:50.668Z,101487.58
2019-04-16T23:27:58.123Z,101497.95
2019-04-16T23:30:05.941Z,101486.74
2019-04-16T23:32:13.544Z,101489.73
2019-04-16T23:34:20.910Z,101489.73
2019-04-16T23:36:28.164Z,101494.62
2019-04-16T23:38:35.572Z,101488.28
2019-04-16T23:40:43.923Z,101486.62
2019-04-16T23:43:12.170Z,101489.46
2019-04-16T23:45:44.094Z,101490.89
2019-04-16T23:48:16.244Z,101483.03
2019-04-16T23:50:44.704Z,101488.47
2019-04-16T23:52:47.978Z,101485.64
2019-04-16T23:54:58.540Z,101481.47
2019-04-16T23:57:15.119Z,101485.18
2019-04-16T23:59:35.949Z,101473.61
